PWSweather.com
Personal Weather Stations
Station Observations
IONTARIO88
Lincoln, ON L0R

Lincoln, ON L0R

Lat: 43.1763563, Lon: -79.4719525

Elevation: 297

Station Type: Davis Vantage Pro 2 Plus

http://www.beamsvillewx.ca

Latest ConditionsUpdated 7:40:01 AM EDT Tuesday, Aug 4, 2015
Currently Today's Max Today's Min Today's Average
Temperature 65.6°F18.7°C 67.8°F19.9°C 64.4°F18.0°C 66.3°F19.1°C
Dew Point 60.3°F15.7°C 60.6°F15.9°C 58.2°F14.6°C 59.4°F15.2°C
Winds Calm Calm 2.3 mph WSW3.7 kmh WSW - 0.4 mph 0.6 kmh
Wind Gusts -- 3.5 mph5.6 kmh - -
Humidity 83% 86% 73% 79%
Pressure 29.84 in1010.5 mb 29.84 in1010.5 mb 29.77 in1008.1 mb -
Hour Temp Dew Point Humidity Winds Wind Gusts Pressure Precip Precip Rate Daily Precip Total
07:40 AM 65.6°F18.7°C 60.3°F15.7°C 83% Calm Calm -- 29.84 in1010.5 mb - 0.00 in0.0 mm 0.00 in0.0 mm
07:30 AM 65.1°F18.4°C 60.1°F15.6°C 84% Calm Calm -- 29.84 in1010.5 mb - 0.00 in0.0 mm 0.00 in0.0 mm
07:20 AM 64.6°F18.1°C 60.0°F15.6°C 85% Calm Calm -- 29.84 in1010.5 mb - 0.00 in0.0 mm 0.00 in0.0 mm
07:10 AM 64.5°F18.1°C 60.2°F15.7°C 86% Calm Calm -- 29.84 in1010.5 mb - 0.00 in0.0 mm 0.00 in0.0 mm
07:00 AM 64.4°F18.0°C 60.1°F15.6°C 86% Calm Calm -- 29.83 in1010.2 mb - 0.00 in0.0 mm 0.00 in0.0 mm
06:50 AM 64.5°F18.1°C 60.2°F15.7°C 86% Calm Calm -- 29.83 in1010.2 mb - 0.00 in0.0 mm 0.00 in0.0 mm
06:40 AM 64.6°F18.1°C 60.3°F15.7°C 86% Calm Calm -- 29.83 in1010.2 mb - 0.00 in0.0 mm 0.00 in0.0 mm
06:30 AM 64.7°F18.2°C 60.4°F15.8°C 86% Calm Calm -- 29.83 in1010.2 mb - 0.00 in0.0 mm 0.00 in0.0 mm
06:20 AM 64.8°F18.2°C 60.5°F15.8°C 86% Calm Calm -- 29.82 in1009.8 mb - 0.00 in0.0 mm 0.00 in0.0 mm
06:10 AM 64.8°F18.2°C 60.5°F15.8°C 86% Calm Calm -- 29.82 in1009.8 mb - 0.00 in0.0 mm 0.00 in0.0 mm
06:00 AM 64.9°F18.3°C 60.6°F15.9°C 86% Calm Calm -- 29.82 in1009.8 mb - 0.00 in0.0 mm 0.00 in0.0 mm
05:50 AM 64.9°F18.3°C 60.3°F15.7°C 85% Calm Calm -- 29.82 in1009.8 mb - 0.00 in0.0 mm 0.00 in0.0 mm
05:40 AM 65.1°F18.4°C 60.5°F15.8°C 85% Calm Calm -- 29.82 in1009.8 mb - 0.00 in0.0 mm 0.00 in0.0 mm
05:30 AM 65.3°F18.5°C 60.3°F15.7°C 84% Calm Calm -- 29.81 in1009.5 mb - 0.00 in0.0 mm 0.00 in0.0 mm
05:20 AM 65.5°F18.6°C 60.2°F15.7°C 83% Calm Calm -- 29.81 in1009.5 mb - 0.00 in0.0 mm 0.00 in0.0 mm
05:10 AM 65.8°F18.8°C 60.2°F15.7°C 82% Calm Calm -- 29.81 in1009.5 mb - 0.00 in0.0 mm 0.00 in0.0 mm
05:00 AM 65.9°F18.8°C 59.9°F15.5°C 81% Calm Calm -- 29.81 in1009.5 mb - 0.00 in0.0 mm 0.00 in0.0 mm
04:50 AM 66.0°F18.9°C 59.7°F15.4°C 80% 1.2 mph WSW1.9 kmh WSW 3.5 mph5.6 kmh 29.81 in1009.5 mb - 0.00 in0.0 mm 0.00 in0.0 mm
04:40 AM 66.0°F18.9°C 59.7°F15.4°C 80% Calm Calm 1.2 mph1.9 kmh 29.80 in1009.1 mb - 0.00 in0.0 mm 0.00 in0.0 mm
04:30 AM 66.1°F18.9°C 59.8°F15.4°C 80% Calm Calm -- 29.80 in1009.1 mb - 0.00 in0.0 mm 0.00 in0.0 mm
04:20 AM 66.3°F19.1°C 59.6°F15.3°C 79% 1.2 mph WSW1.9 kmh WSW 2.3 mph3.7 kmh 29.80 in1009.1 mb - 0.00 in0.0 mm 0.00 in0.0 mm
04:10 AM 66.3°F19.1°C 59.6°F15.3°C 79% Calm Calm -- 29.80 in1009.1 mb - 0.00 in0.0 mm 0.00 in0.0 mm
04:00 AM 66.4°F19.1°C 59.3°F15.2°C 78% Calm Calm 1.2 mph1.9 kmh 29.80 in1009.1 mb - 0.00 in0.0 mm 0.00 in0.0 mm
03:50 AM 66.6°F19.2°C 59.5°F15.3°C 78% 1.2 mph WSW1.9 kmh WSW 3.5 mph5.6 kmh 29.79 in1008.8 mb - 0.00 in0.0 mm 0.00 in0.0 mm
03:40 AM 66.7°F19.3°C 59.3°F15.2°C 77% Calm Calm -- 29.79 in1008.8 mb - 0.00 in0.0 mm 0.00 in0.0 mm
03:30 AM 67.0°F19.4°C 59.2°F15.1°C 76% Calm Calm -- 29.79 in1008.8 mb - 0.00 in0.0 mm 0.00 in0.0 mm
03:20 AM 67.1°F19.5°C 58.9°F14.9°C 75% Calm Calm -- 29.78 in1008.5 mb - 0.00 in0.0 mm 0.00 in0.0 mm
03:10 AM 67.1°F19.5°C 58.5°F14.7°C 74% Calm Calm -- 29.78 in1008.5 mb - 0.00 in0.0 mm 0.00 in0.0 mm
03:00 AM 67.2°F19.6°C 58.6°F14.8°C 74% Calm Calm -- 29.78 in1008.5 mb - 0.00 in0.0 mm 0.00 in0.0 mm
02:50 AM 67.2°F19.6°C 58.2°F14.6°C 73% Calm Calm -- 29.78 in1008.5 mb - 0.00 in0.0 mm 0.00 in0.0 mm
02:40 AM 67.2°F19.6°C 58.2°F14.6°C 73% Calm Calm -- 29.78 in1008.5 mb - 0.00 in0.0 mm 0.00 in0.0 mm
02:30 AM 67.2°F19.6°C 58.3°F14.6°C 73% Calm Calm 2.3 mph3.7 kmh 29.78 in1008.5 mb - 0.00 in0.0 mm 0.00 in0.0 mm
02:20 AM 67.1°F19.5°C 58.2°F14.6°C 73% 1.2 mph WSW1.9 kmh WSW 3.5 mph5.6 kmh 29.78 in1008.5 mb - 0.00 in0.0 mm 0.00 in0.0 mm
02:10 AM 67.1°F19.5°C 58.2°F14.6°C 73% Calm Calm -- 29.78 in1008.5 mb - 0.00 in0.0 mm 0.00 in0.0 mm
02:00 AM 66.9°F19.4°C 58.4°F14.7°C 74% 1.2 mph WSW1.9 kmh WSW 2.3 mph3.7 kmh 29.78 in1008.5 mb - 0.00 in0.0 mm 0.00 in0.0 mm
01:50 AM 66.9°F19.4°C 58.3°F14.6°C 74% Calm Calm 2.3 mph3.7 kmh 29.77 in1008.1 mb - 0.00 in0.0 mm 0.00 in0.0 mm
01:40 AM 67.0°F19.4°C 58.8°F14.9°C 75% Calm Calm 1.2 mph1.9 kmh 29.77 in1008.1 mb - 0.00 in0.0 mm 0.00 in0.0 mm
01:30 AM 66.9°F19.4°C 58.7°F14.8°C 75% Calm Calm 1.2 mph1.9 kmh 29.77 in1008.1 mb - 0.00 in0.0 mm 0.00 in0.0 mm
01:20 AM 66.7°F19.3°C 58.9°F14.9°C 76% 1.2 mph WSW1.9 kmh WSW 3.5 mph5.6 kmh 29.77 in1008.1 mb - 0.00 in0.0 mm 0.00 in0.0 mm
01:10 AM 66.9°F19.4°C 59.1°F15.1°C 76% 1.2 mph WSW1.9 kmh WSW 3.5 mph5.6 kmh 29.77 in1008.1 mb - 0.00 in0.0 mm 0.00 in0.0 mm
01:00 AM 67.1°F19.5°C 59.3°F15.2°C 76% 1.2 mph WSW1.9 kmh WSW 2.3 mph3.7 kmh 29.77 in1008.1 mb - 0.00 in0.0 mm 0.00 in0.0 mm
12:50 AM 67.5°F19.7°C 58.9°F14.9°C 74% 1.2 mph WSW1.9 kmh WSW 3.5 mph5.6 kmh 29.77 in1008.1 mb - 0.00 in0.0 mm 0.00 in0.0 mm
12:40 AM 67.7°F19.8°C 59.1°F15.1°C 74% 2.3 mph WSW3.7 kmh WSW 3.5 mph5.6 kmh 29.77 in1008.1 mb - 0.00 in0.0 mm 0.00 in0.0 mm
12:30 AM 67.6°F19.8°C 59.0°F15.0°C 74% 1.2 mph WSW1.9 kmh WSW 3.5 mph5.6 kmh 29.77 in1008.1 mb - 0.00 in0.0 mm 0.00 in0.0 mm
12:20 AM 67.8°F19.9°C 59.2°F15.1°C 74% 2.3 mph WSW3.7 kmh WSW 3.5 mph5.6 kmh 29.77 in1008.1 mb - 0.00 in0.0 mm 0.00 in0.0 mm
12:10 AM 67.7°F19.8°C 58.7°F14.8°C 73% Calm Calm 1.2 mph1.9 kmh 29.77 in1008.1 mb - 0.00 in0.0 mm 0.00 in0.0 mm
12:00 AM 67.7°F19.8°C 58.7°F14.8°C 73% 1.2 mph WSW1.9 kmh WSW 2.3 mph3.7 kmh 29.77 in1008.1 mb - 0.00 in0.0 mm 0.00 in0.0 mm